Time;durP1;ratioP1;P1;durP2;ratioP2;P2;SDS_P1;SDS_P2;PMS_P1;PMS_P2;Temp;Humidity;BMP_temperature;BMP_pressure;BME280_temperature;BME280_humidity;BME280_pressure;Samples;Min_cycle;Max_cycle;Signal;HPM_P1;HPM_P2
2022/12/20 00:01:59;;;;;;;26.67;16.30;;;;;;;;;;5049599;28;20041;-86
2022/12/20 00:04:27;;;;;;;25.38;15.88;;;;;;;;;;5049925;28;20075;-85
2022/12/20 00:06:54;;;;;;;29.20;17.15;;;;;;;;;;5048813;28;20060;-85
2022/12/20 00:09:21;;;;;;;29.20;17.27;;;;;;;;;;5048939;28;20061;-86
2022/12/20 00:11:49;;;;;;;28.80;17.30;;;;;;;;;;5051282;28;20053;-85
2022/12/20 00:14:16;;;;;;;29.50;17.15;;;;;;;;;;5068540;28;20095;-84
2022/12/20 00:16:44;;;;;;;29.30;16.63;;;;;;;;;;5068730;28;20055;-85
2022/12/20 00:19:11;;;;;;;25.25;15.82;;;;;;;;;;5069073;28;20041;-86
2022/12/20 00:21:38;;;;;;;29.38;17.02;;;;;;;;;;5069381;28;20048;-84
2022/12/20 00:24:06;;;;;;;27.55;16.45;;;;;;;;;;5069475;28;20053;-86
2022/12/20 00:26:34;;;;;;;27.25;16.08;;;;;;;;;;5086933;28;20127;-85
2022/12/20 00:29:02;;;;;;;28.90;17.25;;;;;;;;;;5068563;28;20052;-86
2022/12/20 00:31:30;;;;;;;28.38;17.00;;;;;;;;;;5069214;28;20066;-85
2022/12/20 00:33:59;;;;;;;26.77;16.58;;;;;;;;;;5069941;28;20052;-86
2022/12/20 00:36:27;;;;;;;27.73;16.52;;;;;;;;;;5069616;28;20048;-86
2022/12/20 00:38:55;;;;;;;25.90;15.88;;;;;;;;;;5087811;28;20350;-86
2022/12/20 00:41:24;;;;;;;30.48;17.08;;;;;;;;;;5074348;28;20071;-85
2022/12/20 00:43:52;;;;;;;26.40;16.30;;;;;;;;;;5075697;28;20477;-85
2022/12/20 00:46:20;;;;;;;26.15;16.45;;;;;;;;;;5072691;28;20080;-85
2022/12/20 00:48:47;;;;;;;29.13;16.38;;;;;;;;;;5062893;28;20105;-85
2022/12/20 00:51:16;;;;;;;27.13;16.15;;;;;;;;;;5061218;28;20132;-85
2022/12/20 00:53:44;;;;;;;27.00;16.55;;;;;;;;;;5056101;28;20053;-85
2022/12/20 00:56:11;;;;;;;30.25;17.30;;;;;;;;;;5055760;28;20048;-86
2022/12/20 00:58:40;;;;;;;26.25;16.75;;;;;;;;;;5057361;28;20073;-85
2022/12/20 01:01:14;;;;;;;27.13;16.90;;;;;;;;;;5056708;28;20045;-87
2022/12/20 01:03:42;;;;;;;26.48;16.58;;;;;;;;;;5054850;28;20057;-86
2022/12/20 01:06:10;;;;;;;26.67;15.70;;;;;;;;;;5054730;28;20128;-86
2022/12/20 01:08:37;;;;;;;26.02;16.83;;;;;;;;;;5054801;28;20049;-86
2022/12/20 01:11:13;;;;;;;26.10;15.43;;;;;;;;;;5054270;28;20059;-87
2022/12/20 01:13:41;;;;;;;27.27;15.90;;;;;;;;;;5055838;28;20091;-86
2022/12/20 01:16:10;;;;;;;27.67;16.17;;;;;;;;;;5054195;28;20107;-86
2022/12/20 01:18:38;;;;;;;25.83;15.05;;;;;;;;;;5054047;28;20083;-86
2022/12/20 01:21:07;;;;;;;23.13;14.63;;;;;;;;;;5054135;28;20049;-87
2022/12/20 01:23:35;;;;;;;23.55;15.48;;;;;;;;;;5054111;28;20061;-87
2022/12/20 01:26:03;;;;;;;25.27;16.10;;;;;;;;;;5054532;28;20044;-87
2022/12/20 01:28:31;;;;;;;25.30;15.65;;;;;;;;;;5056175;28;20099;-86
2022/12/20 01:30:59;;;;;;;25.48;16.10;;;;;;;;;;5053984;28;20053;-87
2022/12/20 01:33:26;;;;;;;26.13;16.20;;;;;;;;;;5053987;28;20068;-87
2022/12/20 01:36:00;;;;;;;25.73;16.80;;;;;;;;;;5054137;28;20101;-87
2022/12/20 01:38:28;;;;;;;22.75;15.23;;;;;;;;;;5054611;28;20520;-87
2022/12/20 01:40:56;;;;;;;25.33;15.93;;;;;;;;;;5053823;28;20045;-87
2022/12/20 01:43:24;;;;;;;28.50;16.67;;;;;;;;;;5055890;28;20048;-87
2022/12/20 01:45:51;;;;;;;25.02;15.35;;;;;;;;;;5054389;28;20049;-87
2022/12/20 01:48:25;;;;;;;28.45;16.13;;;;;;;;;;5053455;28;20044;-87
2022/12/20 01:50:53;;;;;;;24.92;15.18;;;;;;;;;;5054860;28;20524;-86
2022/12/20 01:53:21;;;;;;;26.52;15.70;;;;;;;;;;5053210;28;20053;-87
2022/12/20 01:55:49;;;;;;;24.42;15.85;;;;;;;;;;5058307;28;20087;-87
2022/12/20 01:58:17;;;;;;;26.27;15.98;;;;;;;;;;5058863;28;20490;-87
2022/12/20 02:00:45;;;;;;;23.27;15.48;;;;;;;;;;5059185;28;20106;-87
2022/12/20 02:03:13;;;;;;;28.00;16.27;;;;;;;;;;5062050;28;20055;-87
2022/12/20 02:05:44;;;;;;;24.95;16.20;;;;;;;;;;5056432;28;20516;-87
2022/12/20 02:08:12;;;;;;;25.27;15.50;;;;;;;;;;5056664;28;20048;-87
2022/12/20 02:10:45;;;;;;;28.05;16.23;;;;;;;;;;5056581;28;20084;-87
2022/12/20 02:13:19;;;;;;;24.35;15.18;;;;;;;;;;5056355;28;20083;-87
2022/12/20 02:15:46;;;;;;;25.73;16.30;;;;;;;;;;5056402;28;20053;-87
2022/12/20 02:18:49;;;;;;;23.17;14.45;;;;;;;;;;5056985;28;20489;-87
2022/12/20 02:21:22;;;;;;;26.55;16.05;;;;;;;;;;5000616;28;20046;-87
2022/12/20 02:24:01;;;;;;;27.05;15.90;;;;;;;;;;5052945;28;20136;-87
2022/12/20 02:26:44;;;;;;;26.67;17.40;;;;;;;;;;5057825;28;20486;-87
2022/12/20 02:29:14;;;;;;;28.98;18.95;;;;;;;;;;5058185;28;20498;-87
2022/12/20 02:31:54;;;;;;;29.45;18.23;;;;;;;;;;5058825;28;20049;-87
2022/12/20 02:34:23;;;;;;;29.83;17.30;;;;;;;;;;5059308;28;20049;-87
2022/12/20 02:36:51;;;;;;;29.40;16.55;;;;;;;;;;5058304;28;20052;-87
2022/12/20 02:39:21;;;;;;;28.73;17.60;;;;;;;;;;5058103;28;20471;-88
2022/12/20 02:41:51;;;;;;;28.67;18.33;;;;;;;;;;5059320;28;20076;-88
2022/12/20 02:47:09;;;;;;;29.67;18.33;;;;;;;;;;5058513;28;20085;-87
2022/12/20 02:49:40;;;;;;;32.05;18.15;;;;;;;;;;5056666;28;20085;-88
2022/12/20 02:52:08;;;;;;;31.45;18.67;;;;;;;;;;5056568;28;20107;-87
2022/12/20 02:54:36;;;;;;;30.50;18.42;;;;;;;;;;5056453;28;20087;-87
2022/12/20 02:57:10;;;;;;;31.15;17.52;;;;;;;;;;5058429;28;20056;-87
2022/12/20 02:59:40;;;;;;;28.20;17.13;;;;;;;;;;5057623;28;20041;-87
2022/12/20 03:02:08;;;;;;;29.52;17.05;;;;;;;;;;5056499;28;20132;-85
2022/12/20 03:04:37;;;;;;;28.05;18.38;;;;;;;;;;5056933;28;20391;-86
2022/12/20 03:07:04;;;;;;;28.35;17.30;;;;;;;;;;5057048;28;20118;-87
2022/12/20 03:09:33;;;;;;;29.55;17.35;;;;;;;;;;5057133;28;20136;-87
2022/12/20 03:12:00;;;;;;;29.70;18.17;;;;;;;;;;5059789;28;20080;-87
2022/12/20 03:14:27;;;;;;;36.63;20.23;;;;;;;;;;5058368;28;20056;-87
2022/12/20 03:16:55;;;;;;;34.08;19.40;;;;;;;;;;5058072;28;20433;-87
2022/12/20 03:19:22;;;;;;;38.45;20.08;;;;;;;;;;5059803;28;20128;-87
2022/12/20 03:21:50;;;;;;;37.60;21.38;;;;;;;;;;5060157;28;20490;-87
2022/12/20 03:24:17;;;;;;;33.95;19.05;;;;;;;;;;5058609;28;20513;-87
2022/12/20 03:26:45;;;;;;;32.13;19.33;;;;;;;;;;5058528;28;20045;-87
2022/12/20 03:29:17;;;;;;;35.33;20.17;;;;;;;;;;5057632;28;20049;-87
2022/12/20 03:31:44;;;;;;;38.80;21.15;;;;;;;;;;5057014;28;20049;-86
2022/12/20 03:34:12;;;;;;;38.00;20.67;;;;;;;;;;5055411;28;20516;-86
2022/12/20 03:36:41;;;;;;;35.60;20.65;;;;;;;;;;5055349;28;20421;-86
2022/12/20 03:39:11;;;;;;;37.38;20.60;;;;;;;;;;5055069;28;20045;-87
2022/12/20 03:41:38;;;;;;;40.38;21.63;;;;;;;;;;5055127;28;20040;-86
2022/12/20 03:44:12;;;;;;;34.63;19.85;;;;;;;;;;5055034;28;20049;-86
2022/12/20 03:46:45;;;;;;;36.53;20.55;;;;;;;;;;5054694;28;20048;-87
2022/12/20 03:49:12;;;;;;;32.67;19.05;;;;;;;;;;5054290;28;20049;-86
2022/12/20 03:51:41;;;;;;;37.33;19.92;;;;;;;;;;5054552;28;20048;-86
2022/12/20 03:54:08;;;;;;;31.65;18.83;;;;;;;;;;5069512;22;20068;-79
2022/12/20 03:56:35;;;;;;;31.13;18.38;;;;;;;;;;5037118;28;20137;-81
2022/12/20 03:59:03;;;;;;;28.48;18.00;;;;;;;;;;5037284;28;20136;-80
2022/12/20 04:01:30;;;;;;;32.03;18.75;;;;;;;;;;5056987;28;20049;-79
2022/12/20 04:03:57;;;;;;;32.85;18.92;;;;;;;;;;5048084;28;20049;-80
2022/12/20 04:06:25;;;;;;;27.92;16.67;;;;;;;;;;5056780;28;20049;-80
2022/12/20 04:08:52;;;;;;;26.88;17.25;;;;;;;;;;5056324;28;20060;-80
2022/12/20 04:11:19;;;;;;;25.38;16.65;;;;;;;;;;5056073;28;20482;-80
2022/12/20 04:13:48;;;;;;;28.60;17.17;;;;;;;;;;5054909;28;20132;-82
2022/12/20 04:16:16;;;;;;;26.45;16.67;;;;;;;;;;5054555;28;20067;-80
2022/12/20 04:18:44;;;;;;;25.83;16.58;;;;;;;;;;5053849;28;20500;-79
2022/12/20 04:21:11;;;;;;;26.20;16.27;;;;;;;;;;5055510;28;20133;-80
2022/12/20 04:23:39;;;;;;;27.05;16.48;;;;;;;;;;5053486;28;20063;-81
2022/12/20 04:26:08;;;;;;;25.65;15.18;;;;;;;;;;5054030;28;20055;-83
2022/12/20 04:28:35;;;;;;;22.15;14.88;;;;;;;;;;5053206;28;20055;-82
2022/12/20 04:31:02;;;;;;;24.15;15.40;;;;;;;;;;5053419;28;20048;-80
2022/12/20 04:33:30;;;;;;;26.70;14.95;;;;;;;;;;5055843;28;20478;-81
2022/12/20 04:35:57;;;;;;;23.55;15.55;;;;;;;;;;5055413;28;20137;-80
2022/12/20 04:38:25;;;;;;;26.23;16.27;;;;;;;;;;5055813;28;20124;-80
2022/12/20 04:40:53;;;;;;;24.40;15.18;;;;;;;;;;5057148;28;20072;-79
2022/12/20 04:43:21;;;;;;;24.90;15.23;;;;;;;;;;5057408;28;20045;-80
2022/12/20 04:45:49;;;;;;;29.17;16.08;;;;;;;;;;5053229;28;20044;-79
2022/12/20 04:48:16;;;;;;;25.58;16.13;;;;;;;;;;5053012;28;20045;-80
2022/12/20 04:51:03;;;;;;;24.67;15.60;;;;;;;;;;5052281;28;20058;-79
2022/12/20 04:53:49;;;;;;;24.55;15.55;;;;;;;;;;5051561;28;20057;-81
2022/12/20 04:56:17;;;;;;;24.17;16.25;;;;;;;;;;5051840;28;20061;-81
2022/12/20 04:58:45;;;;;;;24.88;15.70;;;;;;;;;;5051700;28;20044;-81
2022/12/20 05:01:12;;;;;;;27.63;16.48;;;;;;;;;;5053008;28;20041;-79
2022/12/20 05:03:39;;;;;;;24.33;15.82;;;;;;;;;;5059483;28;20049;-83
2022/12/20 05:06:07;;;;;;;23.63;15.27;;;;;;;;;;5057305;28;20045;-80
2022/12/20 05:08:35;;;;;;;26.83;16.25;;;;;;;;;;5057374;28;20080;-80
2022/12/20 05:11:02;;;;;;;21.83;14.93;;;;;;;;;;5058238;28;20136;-80
2022/12/20 05:13:29;;;;;;;23.63;16.17;;;;;;;;;;5055837;28;20045;-80
2022/12/20 05:15:57;;;;;;;27.58;16.63;;;;;;;;;;5056490;28;20540;-80
2022/12/20 05:18:25;;;;;;;25.38;16.58;;;;;;;;;;5057240;28;20044;-80
2022/12/20 05:26:16;;;;;;;27.88;17.08;;;;;;;;;;5055166;28;20099;-80
2022/12/20 05:26:30;;;;;;;25.17;16.02;;;;;;;;;;5055443;28;20127;-80
2022/12/20 05:28:57;;;;;;;27.13;16.77;;;;;;;;;;5054830;28;20139;-79
2022/12/20 05:31:24;;;;;;;24.60;15.23;;;;;;;;;;5055018;28;20049;-80
2022/12/20 05:33:51;;;;;;;23.80;15.10;;;;;;;;;;5054117;28;20060;-80
2022/12/20 05:36:19;;;;;;;24.48;15.63;;;;;;;;;;5054493;28;20084;-80
2022/12/20 05:38:46;;;;;;;24.83;16.10;;;;;;;;;;5054790;28;20489;-79
2022/12/20 05:41:13;;;;;;;24.10;16.05;;;;;;;;;;5054423;28;20068;-80
2022/12/20 05:43:41;;;;;;;25.48;16.67;;;;;;;;;;5052976;28;20045;-80
2022/12/20 05:46:08;;;;;;;27.52;17.25;;;;;;;;;;5053356;28;20124;-80
2022/12/20 05:48:35;;;;;;;27.75;17.20;;;;;;;;;;5053820;28;20063;-79
2022/12/20 05:51:03;;;;;;;30.23;17.65;;;;;;;;;;5054531;28;20537;-80
2022/12/20 05:53:30;;;;;;;33.30;17.90;;;;;;;;;;5054317;28;20067;-79
2022/12/20 05:55:58;;;;;;;30.70;17.70;;;;;;;;;;5052857;28;20053;-79
2022/12/20 05:58:25;;;;;;;29.45;18.55;;;;;;;;;;5053799;28;20052;-80
2022/12/20 06:00:52;;;;;;;25.38;17.48;;;;;;;;;;5052215;28;20045;-79
2022/12/20 06:03:20;;;;;;;26.85;17.15;;;;;;;;;;5053195;28;20488;-79
2022/12/20 06:05:47;;;;;;;28.45;17.70;;;;;;;;;;5051732;28;20045;-79
2022/12/20 06:08:15;;;;;;;28.08;18.00;;;;;;;;;;5053966;28;20523;-80
2022/12/20 06:10:42;;;;;;;26.77;17.27;;;;;;;;;;5052229;28;20048;-79
2022/12/20 06:13:09;;;;;;;31.55;18.27;;;;;;;;;;5051817;28;20045;-80
2022/12/20 06:15:37;;;;;;;25.52;16.65;;;;;;;;;;5052064;28;20053;-80
2022/12/20 06:18:05;;;;;;;29.83;18.08;;;;;;;;;;5054240;28;20132;-80
2022/12/20 06:20:33;;;;;;;27.52;17.35;;;;;;;;;;5051508;28;20132;-79
2022/12/20 06:23:00;;;;;;;27.10;16.92;;;;;;;;;;5051067;28;20049;-78
2022/12/20 06:25:28;;;;;;;29.27;17.15;;;;;;;;;;5051263;28;20041;-79
2022/12/20 06:27:55;;;;;;;25.33;16.85;;;;;;;;;;5052055;28;20471;-78
2022/12/20 06:30:23;;;;;;;28.38;16.65;;;;;;;;;;5051963;28;20051;-79
2022/12/20 06:32:58;;;;;;;29.08;17.15;;;;;;;;;;5051053;28;20415;-79
2022/12/20 06:35:25;;;;;;;30.67;17.52;;;;;;;;;;5052979;28;20120;-80
2022/12/20 06:37:52;;;;;;;29.15;18.27;;;;;;;;;;5057438;28;20049;-80
2022/12/20 06:40:19;;;;;;;28.15;17.85;;;;;;;;;;5057461;28;20045;-80
2022/12/20 06:42:47;;;;;;;29.27;17.83;;;;;;;;;;5059500;28;20045;-80
2022/12/20 06:45:14;;;;;;;27.13;17.48;;;;;;;;;;5058408;28;20041;-80
2022/12/20 06:47:41;;;;;;;32.28;18.33;;;;;;;;;;5058984;28;20041;-80
2022/12/20 06:50:08;;;;;;;33.58;19.10;;;;;;;;;;5057700;28;20051;-80
2022/12/20 06:52:35;;;;;;;33.00;19.00;;;;;;;;;;5057168;28;20041;-80
2022/12/20 06:55:03;;;;;;;36.55;18.90;;;;;;;;;;5056910;28;20052;-80
2022/12/20 06:57:30;;;;;;;36.97;20.13;;;;;;;;;;5058651;28;20109;-80
2022/12/20 06:59:57;;;;;;;33.08;18.75;;;;;;;;;;5056749;28;20411;-80
2022/12/20 07:02:24;;;;;;;34.30;19.00;;;;;;;;;;5057081;28;20041;-81
2022/12/20 07:04:54;;;;;;;33.83;18.65;;;;;;;;;;5057030;28;20137;-80
2022/12/20 07:07:21;;;;;;;32.95;18.73;;;;;;;;;;5058683;28;20450;-80
2022/12/20 07:09:48;;;;;;;35.75;18.67;;;;;;;;;;5056591;28;20131;-80
2022/12/20 07:12:16;;;;;;;33.08;17.70;;;;;;;;;;5056562;28;20080;-80
2022/12/20 07:14:43;;;;;;;31.80;17.27;;;;;;;;;;5057543;28;20132;-81
2022/12/20 07:17:11;;;;;;;36.17;19.00;;;;;;;;;;5057529;28;20140;-79
2022/12/20 07:19:38;;;;;;;32.53;18.75;;;;;;;;;;5055443;28;20051;-78
2022/12/20 07:22:11;;;;;;;37.03;19.00;;;;;;;;;;5056020;28;20495;-79
2022/12/20 07:24:38;;;;;;;35.55;19.83;;;;;;;;;;5057040;28;20051;-80
2022/12/20 07:27:06;;;;;;;35.63;18.67;;;;;;;;;;5055434;28;20496;-79
2022/12/20 07:29:35;;;;;;;38.63;21.48;;;;;;;;;;5056845;28;20049;-79
2022/12/20 07:32:02;;;;;;;36.83;21.27;;;;;;;;;;5056555;28;20075;-78
2022/12/20 07:34:29;;;;;;;39.17;20.70;;;;;;;;;;5054712;28;20049;-80
2022/12/20 07:36:57;;;;;;;34.85;17.10;;;;;;;;;;5054723;28;20161;-80
2022/12/20 07:39:25;;;;;;;33.38;18.00;;;;;;;;;;5054199;28;20478;-79
2022/12/20 07:41:56;;;;;;;33.15;18.10;;;;;;;;;;5055689;28;20041;-80
2022/12/20 07:44:24;;;;;;;31.85;17.20;;;;;;;;;;5055450;28;20044;-80
2022/12/20 07:46:51;;;;;;;34.25;16.80;;;;;;;;;;5054170;28;20052;-78
2022/12/20 07:49:18;;;;;;;29.80;17.55;;;;;;;;;;5054665;28;20080;-80
2022/12/20 07:51:48;;;;;;;32.47;18.70;;;;;;;;;;5054597;28;20135;-79
2022/12/20 07:54:18;;;;;;;32.63;17.70;;;;;;;;;;5054516;28;20069;-80
2022/12/20 07:56:48;;;;;;;57.97;22.55;;;;;;;;;;5053292;28;20080;-80
2022/12/20 07:59:17;;;;;;;59.50;21.00;;;;;;;;;;5053826;28;20077;-78
2022/12/20 08:01:44;;;;;;;59.75;21.65;;;;;;;;;;5054669;28;20420;-80
2022/12/20 08:04:13;;;;;;;61.08;20.88;;;;;;;;;;5055043;28;20051;-79
2022/12/20 08:06:41;;;;;;;46.55;22.33;;;;;;;;;;5052782;28;20123;-79
2022/12/20 08:09:13;;;;;;;63.08;20.88;;;;;;;;;;5053908;28;20131;-79
2022/12/20 08:11:43;;;;;;;48.63;21.63;;;;;;;;;;5058905;28;20048;-80
2022/12/20 08:14:11;;;;;;;49.50;21.85;;;;;;;;;;5058668;28;20495;-81
2022/12/20 08:16:38;;;;;;;38.85;19.90;;;;;;;;;;5056925;28;20055;-80
2022/12/20 08:19:05;;;;;;;33.05;17.88;;;;;;;;;;5056332;28;20565;-81
2022/12/20 08:21:32;;;;;;;33.33;17.58;;;;;;;;;;5056211;28;20085;-81
2022/12/20 08:24:00;;;;;;;45.40;18.25;;;;;;;;;;5056756;28;20132;-80
2022/12/20 08:26:27;;;;;;;38.38;18.73;;;;;;;;;;5057021;28;20052;-83
2022/12/20 08:28:55;;;;;;;33.40;18.90;;;;;;;;;;5056865;28;20513;-80
2022/12/20 08:31:22;;;;;;;33.03;18.05;;;;;;;;;;5055071;28;20451;-79
2022/12/20 08:33:53;;;;;;;27.92;16.27;;;;;;;;;;5056047;28;20427;-80
2022/12/20 08:36:21;;;;;;;22.77;14.95;;;;;;;;;;5056055;28;20083;-80
2022/12/20 08:38:48;;;;;;;28.08;16.77;;;;;;;;;;5053754;28;20045;-79
2022/12/20 08:41:15;;;;;;;32.55;19.00;;;;;;;;;;5053640;28;20478;-79
2022/12/20 08:43:43;;;;;;;32.50;18.90;;;;;;;;;;5053988;28;20128;-79
2022/12/20 08:46:11;;;;;;;34.35;18.67;;;;;;;;;;5054936;28;20051;-79
2022/12/20 08:48:38;;;;;;;48.80;17.13;;;;;;;;;;5053562;28;20071;-81
2022/12/20 08:51:08;;;;;;;34.35;18.55;;;;;;;;;;5053095;28;20136;-80
2022/12/20 08:53:36;;;;;;;27.45;16.83;;;;;;;;;;5052876;28;20053;-79
2022/12/20 08:56:04;;;;;;;29.50;18.25;;;;;;;;;;5054418;28;20077;-79
2022/12/20 08:58:31;;;;;;;40.53;18.30;;;;;;;;;;5054282;28;20092;-81
2022/12/20 09:00:59;;;;;;;43.33;20.17;;;;;;;;;;5052860;28;20049;-81
2022/12/20 09:03:32;;;;;;;;;;;;;;;;;;5053986;28;20048;-79
2022/12/20 09:06:00;;;;;;;28.02;17.55;;;;;;;;;;5069054;28;19920;-80
2022/12/20 09:08:27;;;;;;;31.50;18.13;;;;;;;;;;5054771;28;20095;-80
2022/12/20 09:11:02;;;;;;;36.72;18.50;;;;;;;;;;5052506;28;20419;-79
2022/12/20 09:13:29;;;;;;;31.63;17.33;;;;;;;;;;5053375;28;20067;-80
2022/12/20 09:15:59;;;;;;;34.55;18.90;;;;;;;;;;5051765;28;20128;-80
2022/12/20 09:18:26;;;;;;;40.28;25.40;;;;;;;;;;5053024;28;20049;-78
2022/12/20 09:20:54;;;;;;;35.63;17.77;;;;;;;;;;5051725;28;20049;-80
2022/12/20 09:23:21;;;;;;;31.98;19.30;;;;;;;;;;5051434;28;20135;-78
2022/12/20 09:25:48;;;;;;;39.33;21.90;;;;;;;;;;5051294;28;20049;-78
2022/12/20 09:28:20;;;;;;;30.63;17.75;;;;;;;;;;5051836;28;20084;-79
2022/12/20 09:30:47;;;;;;;36.08;19.88;;;;;;;;;;5051462;28;20148;-78
2022/12/20 09:33:14;;;;;;;27.92;16.80;;;;;;;;;;5051441;28;20053;-78
2022/12/20 09:35:45;;;;;;;34.03;23.08;;;;;;;;;;5051430;28;20124;-79
2022/12/20 09:38:12;;;;;;;29.63;18.63;;;;;;;;;;5051508;28;20397;-79
2022/12/20 09:40:46;;;;;;;34.22;22.13;;;;;;;;;;5052911;28;20443;-79
2022/12/20 09:43:15;;;;;;;25.00;16.67;;;;;;;;;;5052263;28;20049;-78
2022/12/20 09:45:43;;;;;;;81.15;36.42;;;;;;;;;;5054592;28;20128;-80
2022/12/20 09:48:22;;;;;;;41.70;20.88;;;;;;;;;;5055907;28;20052;-80
2022/12/20 09:50:55;;;;;;;42.58;21.23;;;;;;;;;;5054881;28;20500;-80
2022/12/20 09:53:41;;;;;;;76.35;27.98;;;;;;;;;;5046172;22;20099;-91
2022/12/20 09:56:26;;;;;;;32.40;17.30;;;;;;;;;;4996700;28;20057;-92
2022/12/20 09:59:06;;;;;;;35.72;18.55;;;;;;;;;;4996749;28;20053;-92
2022/12/20 10:01:35;;;;;;;99.68;35.28;;;;;;;;;;5013987;28;20054;-92
2022/12/20 10:04:11;;;;;;;121.97;38.13;;;;;;;;;;4997327;28;20133;-92
2022/12/20 10:06:45;;;;;;;115.88;39.97;;;;;;;;;;4996643;28;20061;-92
2022/12/20 10:09:12;;;;;;;;;;;;;;;;;;4997740;28;20417;-92
2022/12/20 10:11:54;;;;;;;72.15;28.30;;;;;;;;;;5014178;28;19929;-92
2022/12/20 10:14:40;;;;;;;32.47;17.85;;;;;;;;;;4996624;28;20073;-92
2022/12/20 10:17:13;;;;;;;35.22;17.77;;;;;;;;;;5001195;28;20056;-91
2022/12/20 10:19:40;;;;;;;34.65;18.33;;;;;;;;;;5001462;28;20068;-91
2022/12/20 10:22:12;;;;;;;110.80;44.50;;;;;;;;;;5018868;28;20049;-92
2022/12/20 10:24:44;;;;;;;35.38;19.42;;;;;;;;;;5000932;28;20096;-91
2022/12/20 10:27:13;;;;;;;52.15;25.75;;;;;;;;;;5001991;28;20053;-92
2022/12/20 10:29:41;;;;;;;50.72;21.92;;;;;;;;;;5001664;28;20525;-91
2022/12/20 10:32:19;;;;;;;31.30;18.45;;;;;;;;;;5018414;28;20057;-91
2022/12/20 10:34:59;;;;;;;46.70;21.77;;;;;;;;;;5018654;28;20050;-92
2022/12/20 10:37:26;;;;;;;31.40;18.67;;;;;;;;;;5020632;28;20050;-91
2022/12/20 10:39:54;;;;;;;39.67;18.75;;;;;;;;;;5003469;28;20413;-92
2022/12/20 10:42:40;;;;;;;19.50;13.43;;;;;;;;;;5007587;28;20056;-92
2022/12/20 10:45:16;;;;;;;22.08;12.85;;;;;;;;;;5009856;28;20057;-91
2022/12/20 10:47:45;;;;;;;21.08;13.27;;;;;;;;;;5006588;28;20046;-91
2022/12/20 10:50:17;;;;;;;18.77;12.57;;;;;;;;;;5005845;28;20486;-90
2022/12/20 10:52:45;;;;;;;19.70;12.52;;;;;;;;;;5000222;28;20522;-91
2022/12/20 10:55:36;;;;;;;17.08;12.13;;;;;;;;;;5004683;28;20046;-91
2022/12/20 10:58:13;;;;;;;19.73;11.88;;;;;;;;;;5022124;28;20108;-91
2022/12/20 11:00:41;;;;;;;17.00;11.77;;;;;;;;;;5006209;28;20060;-91
2022/12/20 11:03:11;;;;;;;21.67;14.82;;;;;;;;;;5023265;28;20049;-90
2022/12/20 11:05:39;;;;;;;23.00;14.82;;;;;;;;;;5004610;28;20073;-91
2022/12/20 11:08:12;;;;;;;24.35;14.75;;;;;;;;;;5005090;28;20121;-89
2022/12/20 11:11:10;;;;;;;24.63;13.30;;;;;;;;;;5011191;28;20053;-90
2022/12/20 11:13:38;;;;;;;26.65;16.50;;;;;;;;;;5021699;28;20049;-90
2022/12/20 11:16:06;;;;;;;26.92;14.85;;;;;;;;;;5006992;28;20054;-90
2022/12/20 11:18:41;;;;;;;21.83;13.70;;;;;;;;;;5004631;28;20133;-90
2022/12/20 11:21:17;;;;;;;20.80;13.02;;;;;;;;;;5003646;28;20045;-90
2022/12/20 11:23:53;;;;;;;176.65;23.17;;;;;;;;;;5008958;28;20134;-90
2022/12/20 11:26:27;;;;;;;95.40;19.35;;;;;;;;;;5022777;28;20125;-90
2022/12/20 11:28:58;;;;;;;28.13;13.55;;;;;;;;;;5004876;28;20046;-90
2022/12/20 11:31:26;;;;;;;37.67;15.75;;;;;;;;;;5005809;28;20133;-90
2022/12/20 11:34:02;;;;;;;31.95;14.95;;;;;;;;;;5004539;28;20545;-91
2022/12/20 11:36:45;;;;;;;34.17;16.08;;;;;;;;;;5002961;28;20078;-91
2022/12/20 11:39:39;;;;;;;44.08;15.05;;;;;;;;;;5002751;28;20422;-90
2022/12/20 11:42:07;;;;;;;24.48;13.55;;;;;;;;;;4999753;28;20058;-91
2022/12/20 11:44:51;;;;;;;25.38;13.95;;;;;;;;;;5000473;28;20046;-89
2022/12/20 11:47:48;;;;;;;22.08;13.25;;;;;;;;;;5018813;28;20046;-90
2022/12/20 11:50:19;;;;;;;26.90;13.90;;;;;;;;;;5000429;28;20053;-90
2022/12/20 11:52:49;;;;;;;20.90;12.85;;;;;;;;;;5000689;28;20049;-89
2022/12/20 11:55:19;;;;;;;20.13;13.63;;;;;;;;;;4999995;28;20433;-90
2022/12/20 11:57:46;;;;;;;19.27;12.93;;;;;;;;;;4999338;28;20080;-89
2022/12/20 12:00:35;;;;;;;21.65;13.85;;;;;;;;;;5002383;28;20045;-90
2022/12/20 12:03:09;;;;;;;20.52;12.70;;;;;;;;;;4998773;28;20052;-90
2022/12/20 12:05:52;;;;;;;25.38;13.20;;;;;;;;;;4999079;28;20049;-90
2022/12/20 12:08:22;;;;;;;31.63;17.63;;;;;;;;;;4999004;28;20409;-89
2022/12/20 12:10:57;;;;;;;21.98;14.43;;;;;;;;;;4998665;28;20050;-90
2022/12/20 12:13:30;;;;;;;20.75;11.73;;;;;;;;;;4999131;28;20050;-90
2022/12/20 12:16:16;;;;;;;20.08;13.32;;;;;;;;;;5015980;28;20498;-89
2022/12/20 12:18:43;;;;;;;23.60;13.85;;;;;;;;;;4998223;28;20490;-89
2022/12/20 12:21:24;;;;;;;20.38;12.70;;;;;;;;;;4998530;28;20113;-89
2022/12/20 12:24:10;;;;;;;17.75;10.95;;;;;;;;;;4999030;28;20057;-89
2022/12/20 12:26:39;;;;;;;17.95;11.25;;;;;;;;;;4998478;28;20046;-90
2022/12/20 12:29:14;;;;;;;17.33;11.15;;;;;;;;;;4999196;28;20125;-89
2022/12/20 12:32:00;;;;;;;18.48;11.40;;;;;;;;;;4997887;28;20068;-90
2022/12/20 12:34:46;;;;;;;16.10;11.25;;;;;;;;;;5015693;28;20045;-88
2022/12/20 12:37:25;;;;;;;18.25;11.20;;;;;;;;;;4998700;28;20052;-89
2022/12/20 12:40:04;;;;;;;15.60;10.52;;;;;;;;;;4998164;28;20054;-88
2022/12/20 12:43:00;;;;;;;15.02;10.07;;;;;;;;;;4998210;28;20060;-88
2022/12/20 12:45:31;;;;;;;13.13;9.55;;;;;;;;;;4992890;28;20496;-89
2022/12/20 12:48:01;;;;;;;17.15;10.80;;;;;;;;;;4997912;28;20050;-91
2022/12/20 12:50:32;;;;;;;15.95;9.70;;;;;;;;;;5015097;28;20471;-88
2022/12/20 12:53:14;;;;;;;15.55;11.25;;;;;;;;;;5014445;28;20041;-88
2022/12/20 12:55:46;;;;;;;15.95;10.52;;;;;;;;;;5014446;28;20050;-89
2022/12/20 12:58:14;;;;;;;15.70;10.35;;;;;;;;;;4997259;28;20050;-87
2022/12/20 13:00:49;;;;;;;14.35;9.25;;;;;;;;;;4997029;28;20406;-88
2022/12/20 13:03:34;;;;;;;14.48;9.88;;;;;;;;;;4997427;28;20438;-88
2022/12/20 13:06:20;;;;;;;14.63;9.65;;;;;;;;;;4997219;28;20125;-88
2022/12/20 13:08:49;;;;;;;15.25;9.60;;;;;;;;;;5014727;28;20054;-89
2022/12/20 13:11:28;;;;;;;19.20;10.63;;;;;;;;;;4997232;28;20050;-88
2022/12/20 13:14:14;;;;;;;16.52;10.45;;;;;;;;;;5014439;28;20061;-88
2022/12/20 13:16:42;;;;;;;13.90;9.60;;;;;;;;;;5014122;28;20056;-87
2022/12/20 13:19:29;;;;;;;13.20;9.13;;;;;;;;;;4999365;28;20049;-87
2022/12/20 13:21:57;;;;;;;13.02;9.15;;;;;;;;;;4996875;28;20056;-87
2022/12/20 13:24:33;;;;;;;12.23;9.40;;;;;;;;;;4996637;28;20049;-87
2022/12/20 13:27:01;;;;;;;12.85;8.88;;;;;;;;;;4996851;28;20479;-87
2022/12/20 13:29:35;;;;;;;14.55;9.75;;;;;;;;;;5013874;28;20050;-87
2022/12/20 13:32:22;;;;;;;17.73;11.45;;;;;;;;;;4996668;28;20045;-88
2022/12/20 13:34:54;;;;;;;18.35;11.07;;;;;;;;;;5013655;28;20050;-87
2022/12/20 13:37:26;;;;;;;16.50;10.00;;;;;;;;;;5013659;28;20046;-87
2022/12/20 13:39:53;;;;;;;17.77;10.95;;;;;;;;;;4996356;28;20061;-87
2022/12/20 13:42:26;;;;;;;15.88;9.50;;;;;;;;;;5013956;28;20401;-87
2022/12/20 13:44:54;;;;;;;13.25;9.55;;;;;;;;;;5013875;28;20046;-87
2022/12/20 13:47:38;;;;;;;15.45;10.10;;;;;;;;;;5013576;28;20060;-87
2022/12/20 13:50:39;;;;;;;16.58;10.30;;;;;;;;;;5017697;28;20063;-87
2022/12/20 13:53:15;;;;;;;13.10;8.95;;;;;;;;;;4971346;28;20062;-87
2022/12/20 13:55:44;;;;;;;14.85;9.80;;;;;;;;;;5002799;28;20050;-87
2022/12/20 13:58:13;;;;;;;19.15;11.13;;;;;;;;;;5020462;28;20489;-87
2022/12/20 14:00:40;;;;;;;21.55;12.63;;;;;;;;;;5002864;28;20045;-88
2022/12/20 14:03:17;;;;;;;19.70;12.23;;;;;;;;;;5002848;28;20053;-87
2022/12/20 14:05:44;;;;;;;29.92;16.65;;;;;;;;;;5002317;28;20046;-87
2022/12/20 14:08:17;;;;;;;22.73;13.65;;;;;;;;;;5020168;28;20053;-87
2022/12/20 14:10:44;;;;;;;26.25;16.25;;;;;;;;;;5002886;28;20115;-87
2022/12/20 14:13:22;;;;;;;25.85;14.23;;;;;;;;;;5002909;28;20501;-86
2022/12/20 14:15:49;;;;;;;21.50;13.70;;;;;;;;;;5002716;28;20046;-86
2022/12/20 14:18:22;;;;;;;20.45;13.50;;;;;;;;;;5020174;28;20076;-87
2022/12/20 14:20:55;;;;;;;25.70;14.80;;;;;;;;;;5002320;28;20134;-87
2022/12/20 14:23:24;;;;;;;25.00;14.40;;;;;;;;;;5020092;28;20464;-87
2022/12/20 14:25:59;;;;;;;25.25;15.50;;;;;;;;;;5002403;28;20289;-87
2022/12/20 14:28:29;;;;;;;20.88;12.82;;;;;;;;;;5002577;28;20134;-86
2022/12/20 14:30:57;;;;;;;39.97;23.00;;;;;;;;;;5002677;28;20085;-87
2022/12/20 14:33:38;;;;;;;17.83;11.23;;;;;;;;;;5002648;28;20042;-86
2022/12/20 14:36:10;;;;;;;17.33;10.85;;;;;;;;;;5002508;28;20425;-86
2022/12/20 14:38:38;;;;;;;22.02;11.25;;;;;;;;;;5002418;28;20069;-86
2022/12/20 14:41:25;;;;;;;22.98;12.30;;;;;;;;;;5002370;28;20049;-86
2022/12/20 14:43:56;;;;;;;21.38;13.18;;;;;;;;;;5019692;28;20065;-86
2022/12/20 14:46:23;;;;;;;22.80;13.95;;;;;;;;;;5002483;28;20506;-86